sensor_id;sensor_type;location;lat;lon;timestamp;temperature;humidity
4429;DHT22;2227;47.810;8.810;2023-04-25T03:49:17;7.10;99.90
4429;DHT22;2227;47.810;8.810;2023-04-25T03:51:45;7.00;99.90
4429;DHT22;2227;47.810;8.810;2023-04-25T03:54:11;7.20;99.90
4429;DHT22;2227;47.810;8.810;2023-04-25T03:56:38;7.20;99.90
4429;DHT22;2227;47.810;8.810;2023-04-25T03:59:05;7.30;99.90
4429;DHT22;2227;47.810;8.810;2023-04-25T04:01:31;7.30;99.90
4429;DHT22;2227;47.810;8.810;2023-04-25T04:03:58;7.30;99.90
4429;DHT22;2227;47.810;8.810;2023-04-25T04:06:25;7.40;99.90
4429;DHT22;2227;47.810;8.810;2023-04-25T04:08:52;7.20;99.90
4429;DHT22;2227;47.810;8.810;2023-04-25T04:11:18;7.10;99.90
4429;DHT22;2227;47.810;8.810;2023-04-25T04:13:45;7.10;99.90
4429;DHT22;2227;47.810;8.810;2023-04-25T04:16:12;7.10;99.90
4429;DHT22;2227;47.810;8.810;2023-04-25T04:18:38;7.10;99.90
4429;DHT22;2227;47.810;8.810;2023-04-25T04:21:05;7.10;99.90
4429;DHT22;2227;47.810;8.810;2023-04-25T04:23:32;7.10;99.90
4429;DHT22;2227;47.810;8.810;2023-04-25T04:25:59;7.20;99.90
4429;DHT22;2227;47.810;8.810;2023-04-25T04:28:26;7.20;99.90
4429;DHT22;2227;47.810;8.810;2023-04-25T04:30:53;7.00;99.90
4429;DHT22;2227;47.810;8.810;2023-04-25T04:33:19;7.10;99.90
4429;DHT22;2227;47.810;8.810;2023-04-25T04:35:46;7.20;99.90
4429;DHT22;2227;47.810;8.810;2023-04-25T04:38:13;7.10;99.90
4429;DHT22;2227;47.810;8.810;2023-04-25T04:40:42;7.20;99.90
4429;DHT22;2227;47.810;8.810;2023-04-25T04:43:12;7.20;99.90
4429;DHT22;2227;47.810;8.810;2023-04-25T04:45:39;7.30;99.90
4429;DHT22;2227;47.810;8.810;2023-04-25T04:48:06;7.30;99.90
4429;DHT22;2227;47.810;8.810;2023-04-25T04:50:33;7.30;99.90
4429;DHT22;2227;47.810;8.810;2023-04-25T04:53:00;7.40;99.90
4429;DHT22;2227;47.810;8.810;2023-04-25T04:55:27;7.40;99.90
4429;DHT22;2227;47.810;8.810;2023-04-25T04:57:53;7.40;99.90
4429;DHT22;2227;47.810;8.810;2023-04-25T05:00:20;7.40;99.90
4429;DHT22;2227;47.810;8.810;2023-04-25T05:02:47;7.50;99.90
4429;DHT22;2227;47.810;8.810;2023-04-25T05:05:14;7.50;99.90
4429;DHT22;2227;47.810;8.810;2023-04-25T05:07:41;7.50;99.90
4429;DHT22;2227;47.810;8.810;2023-04-25T05:10:08;7.50;99.90
4429;DHT22;2227;47.810;8.810;2023-04-25T05:12:35;7.60;99.90
4429;DHT22;2227;47.810;8.810;2023-04-25T05:15:02;7.60;99.90
4429;DHT22;2227;47.810;8.810;2023-04-25T05:17:29;7.40;99.90
4429;DHT22;2227;47.810;8.810;2023-04-25T05:19:56;7.30;99.90
4429;DHT22;2227;47.810;8.810;2023-04-25T05:22:23;7.30;99.90
4429;DHT22;2227;47.810;8.810;2023-04-25T05:24:50;7.50;99.90
4429;DHT22;2227;47.810;8.810;2023-04-25T05:27:21;7.60;99.90
4429;DHT22;2227;47.810;8.810;2023-04-25T05:29:47;7.50;99.90
4429;DHT22;2227;47.810;8.810;2023-04-25T05:32:14;7.60;99.90
4429;DHT22;2227;47.810;8.810;2023-04-25T05:34:41;7.70;99.90
4429;DHT22;2227;47.810;8.810;2023-04-25T05:37:08;7.80;99.90
4429;DHT22;2227;47.810;8.810;2023-04-25T05:39:35;7.90;99.90
4429;DHT22;2227;47.810;8.810;2023-04-25T05:42:02;8.00;99.90
4429;DHT22;2227;47.810;8.810;2023-04-25T05:44:30;8.20;99.90
4429;DHT22;2227;47.810;8.810;2023-04-25T05:46:57;8.30;99.90
4429;DHT22;2227;47.810;8.810;2023-04-25T05:49:24;8.30;99.90
4429;DHT22;2227;47.810;8.810;2023-04-25T05:51:51;8.40;99.90
4429;DHT22;2227;47.810;8.810;2023-04-25T05:54:18;8.40;99.90
4429;DHT22;2227;47.810;8.810;2023-04-25T05:56:44;8.60;99.90
4429;DHT22;2227;47.810;8.810;2023-04-25T05:59:11;8.80;99.90
4429;DHT22;2227;47.810;8.810;2023-04-25T06:01:38;8.90;99.90
4429;DHT22;2227;47.810;8.810;2023-04-25T06:04:04;9.00;99.90
4429;DHT22;2227;47.810;8.810;2023-04-25T06:06:31;9.10;99.90
4429;DHT22;2227;47.810;8.810;2023-04-25T06:08:58;9.20;99.90
4429;DHT22;2227;47.810;8.810;2023-04-25T06:11:25;9.30;99.90
4429;DHT22;2227;47.810;8.810;2023-04-25T06:13:51;9.30;99.90
4429;DHT22;2227;47.810;8.810;2023-04-25T06:16:18;9.40;99.90
4429;DHT22;2227;47.810;8.810;2023-04-25T06:18:45;9.60;99.90
4429;DHT22;2227;47.810;8.810;2023-04-25T06:21:12;9.50;99.90
4429;DHT22;2227;47.810;8.810;2023-04-25T06:23:39;9.60;99.90
4429;DHT22;2227;47.810;8.810;2023-04-25T06:26:05;9.80;99.90
4429;DHT22;2227;47.810;8.810;2023-04-25T06:28:32;9.80;99.90
4429;DHT22;2227;47.810;8.810;2023-04-25T06:30:59;9.70;99.90
4429;DHT22;2227;47.810;8.810;2023-04-25T06:33:25;9.70;99.90
4429;DHT22;2227;47.810;8.810;2023-04-25T06:35:53;9.80;99.90
4429;DHT22;2227;47.810;8.810;2023-04-25T06:38:19;10.00;99.90
4429;DHT22;2227;47.810;8.810;2023-04-25T06:40:46;10.00;99.90
4429;DHT22;2227;47.810;8.810;2023-04-25T06:43:13;10.00;99.90
4429;DHT22;2227;47.810;8.810;2023-04-25T06:45:40;10.00;99.90
4429;DHT22;2227;47.810;8.810;2023-04-25T06:48:06;10.00;99.90
4429;DHT22;2227;47.810;8.810;2023-04-25T06:50:33;10.00;99.90
4429;DHT22;2227;47.810;8.810;2023-04-25T06:53:00;9.90;99.90
4429;DHT22;2227;47.810;8.810;2023-04-25T06:55:28;9.90;99.90
4429;DHT22;2227;47.810;8.810;2023-04-25T06:57:54;9.90;99.90
4429;DHT22;2227;47.810;8.810;2023-04-25T07:00:21;9.70;99.90
4429;DHT22;2227;47.810;8.810;2023-04-25T07:02:47;9.60;99.90
4429;DHT22;2227;47.810;8.810;2023-04-25T07:05:14;9.60;99.90
4429;DHT22;2227;47.810;8.810;2023-04-25T07:07:44;9.40;99.90
4429;DHT22;2227;47.810;8.810;2023-04-25T07:10:11;9.00;99.90
4429;DHT22;2227;47.810;8.810;2023-04-25T07:12:38;8.60;99.90
4429;DHT22;2227;47.810;8.810;2023-04-25T07:15:05;8.40;99.90
4429;DHT22;2227;47.810;8.810;2023-04-25T07:17:32;8.10;99.90
4429;DHT22;2227;47.810;8.810;2023-04-25T07:20:00;8.10;99.90
4429;DHT22;2227;47.810;8.810;2023-04-25T07:22:26;7.90;99.90
4429;DHT22;2227;47.810;8.810;2023-04-25T07:24:53;7.80;99.90
4429;DHT22;2227;47.810;8.810;2023-04-25T07:27:20;7.50;99.90
4429;DHT22;2227;47.810;8.810;2023-04-25T07:29:47;7.50;99.90
4429;DHT22;2227;47.810;8.810;2023-04-25T07:32:13;7.30;99.90
4429;DHT22;2227;47.810;8.810;2023-04-25T07:34:40;7.40;99.90
4429;DHT22;2227;47.810;8.810;2023-04-25T07:37:07;7.00;99.90
4429;DHT22;2227;47.810;8.810;2023-04-25T07:39:34;6.90;99.90
4429;DHT22;2227;47.810;8.810;2023-04-25T07:42:01;7.00;99.90
4429;DHT22;2227;47.810;8.810;2023-04-25T07:44:28;7.20;99.90
4429;DHT22;2227;47.810;8.810;2023-04-25T07:46:56;7.30;99.90
4429;DHT22;2227;47.810;8.810;2023-04-25T07:49:24;7.40;99.90
4429;DHT22;2227;47.810;8.810;2023-04-25T07:51:50;7.70;99.90
4429;DHT22;2227;47.810;8.810;2023-04-25T07:54:17;8.00;99.90
4429;DHT22;2227;47.810;8.810;2023-04-25T07:56:44;8.10;99.90
4429;DHT22;2227;47.810;8.810;2023-04-25T07:59:19;8.20;99.90
4429;DHT22;2227;47.810;8.810;2023-04-25T08:01:45;8.30;99.90
4429;DHT22;2227;47.810;8.810;2023-04-25T08:04:12;8.40;99.90
4429;DHT22;2227;47.810;8.810;2023-04-25T08:06:39;8.30;99.90
4429;DHT22;2227;47.810;8.810;2023-04-25T08:09:07;8.40;99.90
4429;DHT22;2227;47.810;8.810;2023-04-25T08:11:35;8.60;99.90
4429;DHT22;2227;47.810;8.810;2023-04-25T08:14:02;8.60;99.90
4429;DHT22;2227;47.810;8.810;2023-04-25T08:16:29;8.70;99.90
4429;DHT22;2227;47.810;8.810;2023-04-25T08:18:56;8.80;99.90
4429;DHT22;2227;47.810;8.810;2023-04-25T08:21:23;8.60;99.90
4429;DHT22;2227;47.810;8.810;2023-04-25T08:23:50;8.60;99.90
4429;DHT22;2227;47.810;8.810;2023-04-25T08:26:16;8.30;99.90
4429;DHT22;2227;47.810;8.810;2023-04-25T08:28:43;8.30;99.90
4429;DHT22;2227;47.810;8.810;2023-04-25T08:31:10;8.50;99.90
4429;DHT22;2227;47.810;8.810;2023-04-25T08:33:37;8.10;99.90
4429;DHT22;2227;47.810;8.810;2023-04-25T08:36:04;8.10;99.90
4429;DHT22;2227;47.810;8.810;2023-04-25T08:38:30;8.00;99.90
4429;DHT22;2227;47.810;8.810;2023-04-25T08:40:59;8.00;99.90
4429;DHT22;2227;47.810;8.810;2023-04-25T08:43:29;7.60;99.90
4429;DHT22;2227;47.810;8.810;2023-04-25T08:46:00;7.60;99.90
4429;DHT22;2227;47.810;8.810;2023-04-25T08:48:27;7.60;99.90
4429;DHT22;2227;47.810;8.810;2023-04-25T08:50:57;7.50;99.90
4429;DHT22;2227;47.810;8.810;2023-04-25T08:53:29;7.70;99.90
4429;DHT22;2227;47.810;8.810;2023-04-25T08:55:58;8.10;99.90
4429;DHT22;2227;47.810;8.810;2023-04-25T08:58:25;8.50;99.90
4429;DHT22;2227;47.810;8.810;2023-04-25T09:00:53;8.70;99.90
4429;DHT22;2227;47.810;8.810;2023-04-25T09:03:20;9.10;99.90
4429;DHT22;2227;47.810;8.810;2023-04-25T09:05:47;9.50;99.90
4429;DHT22;2227;47.810;8.810;2023-04-25T09:08:14;9.40;99.90
4429;DHT22;2227;47.810;8.810;2023-04-25T09:10:40;9.50;99.90
4429;DHT22;2227;47.810;8.810;2023-04-25T09:13:09;9.70;99.90
4429;DHT22;2227;47.810;8.810;2023-04-25T09:16:07;9.70;99.90
4429;DHT22;2227;47.810;8.810;2023-04-25T09:18:35;10.00;99.90
4429;DHT22;2227;47.810;8.810;2023-04-25T09:21:10;10.20;99.90
4429;DHT22;2227;47.810;8.810;2023-04-25T09:23:47;10.40;99.90
4429;DHT22;2227;47.810;8.810;2023-04-25T09:26:19;11.20;99.90
4429;DHT22;2227;47.810;8.810;2023-04-25T09:28:46;11.90;99.90
4429;DHT22;2227;47.810;8.810;2023-04-25T09:31:24;11.90;99.90
4429;DHT22;2227;47.810;8.810;2023-04-25T09:33:59;12.10;99.90
4429;DHT22;2227;47.810;8.810;2023-04-25T09:36:30;12.00;99.90
4429;DHT22;2227;47.810;8.810;2023-04-25T09:38:59;11.80;99.90
4429;DHT22;2227;47.810;8.810;2023-04-25T09:41:26;11.70;99.90
4429;DHT22;2227;47.810;8.810;2023-04-25T09:43:56;11.60;99.90
4429;DHT22;2227;47.810;8.810;2023-04-25T09:46:24;11.80;99.90
4429;DHT22;2227;47.810;8.810;2023-04-25T09:48:51;11.50;99.90
4429;DHT22;2227;47.810;8.810;2023-04-25T09:51:20;11.70;99.90
4429;DHT22;2227;47.810;8.810;2023-04-25T09:53:47;11.90;99.90
4429;DHT22;2227;47.810;8.810;2023-04-25T09:56:18;11.90;99.90
4429;DHT22;2227;47.810;8.810;2023-04-25T09:58:47;11.70;99.90
4429;DHT22;2227;47.810;8.810;2023-04-25T10:01:16;11.80;99.90
4429;DHT22;2227;47.810;8.810;2023-04-25T10:03:44;11.80;99.90
4429;DHT22;2227;47.810;8.810;2023-04-25T10:06:17;11.80;99.90
4429;DHT22;2227;47.810;8.810;2023-04-25T10:08:49;11.80;99.90
4429;DHT22;2227;47.810;8.810;2023-04-25T10:11:17;11.60;99.90
4429;DHT22;2227;47.810;8.810;2023-04-25T10:13:44;11.40;99.90
4429;DHT22;2227;47.810;8.810;2023-04-25T10:16:12;11.80;99.90
4429;DHT22;2227;47.810;8.810;2023-04-25T10:18:39;12.20;99.90
4429;DHT22;2227;47.810;8.810;2023-04-25T10:21:06;12.60;99.90
4429;DHT22;2227;47.810;8.810;2023-04-25T10:23:33;13.20;99.90
4429;DHT22;2227;47.810;8.810;2023-04-25T10:26:01;13.70;99.90
4429;DHT22;2227;47.810;8.810;2023-04-25T10:28:28;13.20;99.90
4429;DHT22;2227;47.810;8.810;2023-04-25T10:30:59;12.80;99.90
4429;DHT22;2227;47.810;8.810;2023-04-25T10:33:39;13.70;99.90
4429;DHT22;2227;47.810;8.810;2023-04-25T10:36:15;14.90;99.90
4429;DHT22;2227;47.810;8.810;2023-04-25T10:38:45;15.40;99.90
4429;DHT22;2227;47.810;8.810;2023-04-25T10:41:13;15.30;99.90
4429;DHT22;2227;47.810;8.810;2023-04-25T10:43:41;14.90;99.90
4429;DHT22;2227;47.810;8.810;2023-04-25T10:46:25;14.20;99.90
4429;DHT22;2227;47.810;8.810;2023-04-25T10:49:01;13.50;99.90
4429;DHT22;2227;47.810;8.810;2023-04-25T10:51:34;13.30;99.90
4429;DHT22;2227;47.810;8.810;2023-04-25T10:54:22;12.80;99.90
4429;DHT22;2227;47.810;8.810;2023-04-25T10:56:50;13.10;99.90
4429;DHT22;2227;47.810;8.810;2023-04-25T10:59:18;13.40;99.90
4429;DHT22;2227;47.810;8.810;2023-04-25T11:01:47;13.80;99.90
4429;DHT22;2227;47.810;8.810;2023-04-25T11:04:20;14.10;99.90
4429;DHT22;2227;47.810;8.810;2023-04-25T11:07:21;14.10;99.90
4429;DHT22;2227;47.810;8.810;2023-04-25T11:09:50;14.20;99.90
4429;DHT22;2227;47.810;8.810;2023-04-25T11:12:16;14.00;99.90
4429;DHT22;2227;47.810;8.810;2023-04-25T11:14:44;14.40;99.90
4429;DHT22;2227;47.810;8.810;2023-04-25T11:17:10;15.40;99.90
4429;DHT22;2227;47.810;8.810;2023-04-25T11:19:37;16.20;99.90
4429;DHT22;2227;47.810;8.810;2023-04-25T11:22:04;17.70;99.90
4429;DHT22;2227;47.810;8.810;2023-04-25T11:24:34;18.40;99.50
4429;DHT22;2227;47.810;8.810;2023-04-25T11:27:02;17.70;98.90
4429;DHT22;2227;47.810;8.810;2023-04-25T11:29:31;16.70;99.90
4429;DHT22;2227;47.810;8.810;2023-04-25T11:31:58;15.60;99.90
4429;DHT22;2227;47.810;8.810;2023-04-25T11:34:25;15.40;99.90
4429;DHT22;2227;47.810;8.810;2023-04-25T11:36:53;15.50;99.90
4429;DHT22;2227;47.810;8.810;2023-04-25T11:39:20;16.50;99.90
4429;DHT22;2227;47.810;8.810;2023-04-25T11:41:47;17.00;99.90
4429;DHT22;2227;47.810;8.810;2023-04-25T11:44:18;16.90;99.70
4429;DHT22;2227;47.810;8.810;2023-04-25T11:46:45;16.60;99.60
4429;DHT22;2227;47.810;8.810;2023-04-25T11:49:12;16.50;99.10
4429;DHT22;2227;47.810;8.810;2023-04-25T11:51:48;16.30;98.40
4429;DHT22;2227;47.810;8.810;2023-04-25T11:54:16;16.20;98.80
4429;DHT22;2227;47.810;8.810;2023-04-25T11:56:43;16.80;98.60
4429;DHT22;2227;47.810;8.810;2023-04-25T11:59:11;17.50;97.00
4429;DHT22;2227;47.810;8.810;2023-04-25T12:01:40;17.40;96.00
4429;DHT22;2227;47.810;8.810;2023-04-25T12:06:42;16.80;97.10
4429;DHT22;2227;47.810;8.810;2023-04-25T12:09:11;17.10;96.10
4429;DHT22;2227;47.810;8.810;2023-04-25T12:11:43;17.10;95.50
4429;DHT22;2227;47.810;8.810;2023-04-25T12:14:11;17.10;96.40
4429;DHT22;2227;47.810;8.810;2023-04-25T12:16:42;17.90;94.60
4429;DHT22;2227;47.810;8.810;2023-04-25T12:19:13;18.10;92.70
4429;DHT22;2227;47.810;8.810;2023-04-25T12:21:40;18.30;91.10
4429;DHT22;2227;47.810;8.810;2023-04-25T12:24:24;18.30;90.20
4429;DHT22;2227;47.810;8.810;2023-04-25T12:27:03;18.50;90.60
4429;DHT22;2227;47.810;8.810;2023-04-25T12:29:34;18.80;89.20
4429;DHT22;2227;47.810;8.810;2023-04-25T12:32:15;18.90;88.60
4429;DHT22;2227;47.810;8.810;2023-04-25T12:34:42;18.90;87.10
4429;DHT22;2227;47.810;8.810;2023-04-25T12:37:09;18.90;87.80
4429;DHT22;2227;47.810;8.810;2023-04-25T12:39:36;19.30;87.50
4429;DHT22;2227;47.810;8.810;2023-04-25T12:42:03;19.60;85.30
4429;DHT22;2227;47.810;8.810;2023-04-25T12:44:33;19.70;83.10
4429;DHT22;2227;47.810;8.810;2023-04-25T12:47:00;20.00;81.40
4429;DHT22;2227;47.810;8.810;2023-04-25T12:49:27;20.20;81.60
4429;DHT22;2227;47.810;8.810;2023-04-25T12:51:54;20.40;81.90
4429;DHT22;2227;47.810;8.810;2023-04-25T12:54:20;20.50;77.00
4429;DHT22;2227;47.810;8.810;2023-04-25T12:56:49;20.50;77.60
4429;DHT22;2227;47.810;8.810;2023-04-25T12:59:17;20.80;75.10
4429;DHT22;2227;47.810;8.810;2023-04-25T13:01:44;21.00;74.10
4429;DHT22;2227;47.810;8.810;2023-04-25T13:04:12;21.10;71.20
4429;DHT22;2227;47.810;8.810;2023-04-25T13:06:38;20.70;70.30
4429;DHT22;2227;47.810;8.810;2023-04-25T13:09:05;20.20;73.50
4429;DHT22;2227;47.810;8.810;2023-04-25T13:11:33;20.30;72.30
4429;DHT22;2227;47.810;8.810;2023-04-25T13:14:00;20.20;72.70
4429;DHT22;2227;47.810;8.810;2023-04-25T13:16:27;20.00;71.80
4429;DHT22;2227;47.810;8.810;2023-04-25T13:18:54;19.80;71.90
4429;DHT22;2227;47.810;8.810;2023-04-25T13:21:22;19.50;71.80
4429;DHT22;2227;47.810;8.810;2023-04-25T13:23:49;19.50;71.30
4429;DHT22;2227;47.810;8.810;2023-04-25T13:26:17;19.70;74.50
4429;DHT22;2227;47.810;8.810;2023-04-25T13:28:43;19.80;72.10
4429;DHT22;2227;47.810;8.810;2023-04-25T13:31:10;20.00;72.40
4429;DHT22;2227;47.810;8.810;2023-04-25T13:33:37;20.00;70.40
4429;DHT22;2227;47.810;8.810;2023-04-25T13:36:04;19.80;71.80
4429;DHT22;2227;47.810;8.810;2023-04-25T13:38:31;19.70;75.20
4429;DHT22;2227;47.810;8.810;2023-04-25T13:40:58;19.70;71.50
4429;DHT22;2227;47.810;8.810;2023-04-25T13:43:25;18.80;67.80
4429;DHT22;2227;47.810;8.810;2023-04-25T13:45:51;18.50;70.50
4429;DHT22;2227;47.810;8.810;2023-04-25T13:48:18;18.10;73.90
4429;DHT22;2227;47.810;8.810;2023-04-25T13:50:46;18.10;74.10
4429;DHT22;2227;47.810;8.810;2023-04-25T13:53:13;17.60;75.50
4429;DHT22;2227;47.810;8.810;2023-04-25T13:55:39;17.30;78.10
4429;DHT22;2227;47.810;8.810;2023-04-25T13:58:06;16.10;77.20
4429;DHT22;2227;47.810;8.810;2023-04-25T14:00:37;16.20;80.50
4429;DHT22;2227;47.810;8.810;2023-04-25T14:03:09;16.40;81.40
4429;DHT22;2227;47.810;8.810;2023-04-25T14:05:37;16.60;81.20
4429;DHT22;2227;47.810;8.810;2023-04-25T14:08:09;16.30;81.70
4429;DHT22;2227;47.810;8.810;2023-04-25T14:10:37;16.30;82.50
4429;DHT22;2227;47.810;8.810;2023-04-25T14:13:04;16.40;82.90
4429;DHT22;2227;47.810;8.810;2023-04-25T14:15:33;16.20;84.50
4429;DHT22;2227;47.810;8.810;2023-04-25T14:18:00;16.00;83.60
4429;DHT22;2227;47.810;8.810;2023-04-25T14:20:28;16.00;84.70
4429;DHT22;2227;47.810;8.810;2023-04-25T14:22:54;16.30;82.70
4429;DHT22;2227;47.810;8.810;2023-04-25T14:25:24;16.20;83.10
4429;DHT22;2227;47.810;8.810;2023-04-25T14:27:50;16.50;83.10
4429;DHT22;2227;47.810;8.810;2023-04-25T14:30:18;16.70;82.20
4429;DHT22;2227;47.810;8.810;2023-04-25T14:32:45;16.80;82.60
4429;DHT22;2227;47.810;8.810;2023-04-25T14:35:12;17.00;82.10
4429;DHT22;2227;47.810;8.810;2023-04-25T14:37:39;17.20;82.30
4429;DHT22;2227;47.810;8.810;2023-04-25T14:40:07;17.50;79.30
4429;DHT22;2227;47.810;8.810;2023-04-25T14:42:37;17.80;78.30
4429;DHT22;2227;47.810;8.810;2023-04-25T14:45:05;18.00;77.30
4429;DHT22;2227;47.810;8.810;2023-04-25T14:47:36;18.10;73.00
4429;DHT22;2227;47.810;8.810;2023-04-25T14:50:04;17.90;75.00
4429;DHT22;2227;47.810;8.810;2023-04-25T14:52:31;18.20;74.50
4429;DHT22;2227;47.810;8.810;2023-04-25T14:54:58;18.60;71.60
4429;DHT22;2227;47.810;8.810;2023-04-25T14:57:28;18.60;73.70
4429;DHT22;2227;47.810;8.810;2023-04-25T14:59:54;18.70;72.80
4429;DHT22;2227;47.810;8.810;2023-04-25T15:02:21;18.90;72.40
4429;DHT22;2227;47.810;8.810;2023-04-25T15:04:48;18.90;72.40
4429;DHT22;2227;47.810;8.810;2023-04-25T15:07:15;18.60;71.20
4429;DHT22;2227;47.810;8.810;2023-04-25T15:09:43;18.70;69.90
4429;DHT22;2227;47.810;8.810;2023-04-25T15:12:11;18.80;69.30
4429;DHT22;2227;47.810;8.810;2023-04-25T15:14:38;18.80;72.70
4429;DHT22;2227;47.810;8.810;2023-04-25T15:17:05;18.60;77.20
4429;DHT22;2227;47.810;8.810;2023-04-25T15:19:31;18.50;78.10
4429;DHT22;2227;47.810;8.810;2023-04-25T15:21:58;18.30;77.90
4429;DHT22;2227;47.810;8.810;2023-04-25T15:24:27;18.00;80.10
4429;DHT22;2227;47.810;8.810;2023-04-25T15:26:55;17.70;79.90
4429;DHT22;2227;47.810;8.810;2023-04-25T15:29:21;17.30;80.70
4429;DHT22;2227;47.810;8.810;2023-04-25T15:31:48;17.00;82.00
4429;DHT22;2227;47.810;8.810;2023-04-25T15:34:15;16.70;82.80
4429;DHT22;2227;47.810;8.810;2023-04-25T15:36:42;16.40;84.00
4429;DHT22;2227;47.810;8.810;2023-04-25T15:39:08;16.30;85.60
4429;DHT22;2227;47.810;8.810;2023-04-25T15:41:36;16.10;85.80
4429;DHT22;2227;47.810;8.810;2023-04-25T15:44:02;15.80;88.30
4429;DHT22;2227;47.810;8.810;2023-04-25T15:46:29;15.60;87.60
4429;DHT22;2227;47.810;8.810;2023-04-25T15:48:56;15.60;88.20
4429;DHT22;2227;47.810;8.810;2023-04-25T15:51:23;15.40;88.90
4429;DHT22;2227;47.810;8.810;2023-04-25T15:53:50;15.20;88.30
4429;DHT22;2227;47.810;8.810;2023-04-25T15:56:17;15.10;89.70
4429;DHT22;2227;47.810;8.810;2023-04-25T15:58:44;14.90;90.30
4429;DHT22;2227;47.810;8.810;2023-04-25T16:01:11;14.70;91.20
4429;DHT22;2227;47.810;8.810;2023-04-25T16:03:38;14.80;91.10
4429;DHT22;2227;47.810;8.810;2023-04-25T16:06:05;15.00;90.90
4429;DHT22;2227;47.810;8.810;2023-04-25T16:08:31;14.90;90.20
4429;DHT22;2227;47.810;8.810;2023-04-25T16:11:01;14.20;91.60
4429;DHT22;2227;47.810;8.810;2023-04-25T16:13:28;14.30;91.80
4429;DHT22;2227;47.810;8.810;2023-04-25T16:15:55;14.40;91.40
4429;DHT22;2227;47.810;8.810;2023-04-25T16:18:23;14.60;91.70
4429;DHT22;2227;47.810;8.810;2023-04-25T16:20:49;14.80;91.70
4429;DHT22;2227;47.810;8.810;2023-04-25T16:23:16;15.10;90.80
4429;DHT22;2227;47.810;8.810;2023-04-25T16:25:44;15.10;91.00
4429;DHT22;2227;47.810;8.810;2023-04-25T16:28:11;15.00;92.00
4429;DHT22;2227;47.810;8.810;2023-04-25T16:30:38;15.00;91.60
4429;DHT22;2227;47.810;8.810;2023-04-25T16:33:04;14.60;91.90
4429;DHT22;2227;47.810;8.810;2023-04-25T16:35:31;14.10;92.90
4429;DHT22;2227;47.810;8.810;2023-04-25T16:37:58;13.90;93.10
4429;DHT22;2227;47.810;8.810;2023-04-25T16:40:25;13.80;93.60
4429;DHT22;2227;47.810;8.810;2023-04-25T16:42:52;13.50;94.10
4429;DHT22;2227;47.810;8.810;2023-04-25T16:45:20;13.30;95.60
4429;DHT22;2227;47.810;8.810;2023-04-25T16:47:47;13.10;94.90
4429;DHT22;2227;47.810;8.810;2023-04-25T16:50:14;12.90;94.80
4429;DHT22;2227;47.810;8.810;2023-04-25T16:52:41;12.60;95.90
4429;DHT22;2227;47.810;8.810;2023-04-25T16:55:10;12.40;96.20
4429;DHT22;2227;47.810;8.810;2023-04-25T16:57:36;12.60;96.30
4429;DHT22;2227;47.810;8.810;2023-04-25T17:00:05;12.90;96.00
4429;DHT22;2227;47.810;8.810;2023-04-25T17:02:31;12.90;95.40
4429;DHT22;2227;47.810;8.810;2023-04-25T17:04:58;12.80;96.00
4429;DHT22;2227;47.810;8.810;2023-04-25T17:07:25;12.80;96.30
4429;DHT22;2227;47.810;8.810;2023-04-25T17:09:53;12.80;96.70
4429;DHT22;2227;47.810;8.810;2023-04-25T17:12:20;12.50;97.30
4429;DHT22;2227;47.810;8.810;2023-04-25T17:14:48;12.10;98.60
4429;DHT22;2227;47.810;8.810;2023-04-25T17:17:15;11.80;99.90
4429;DHT22;2227;47.810;8.810;2023-04-25T17:19:44;11.60;99.90
4429;DHT22;2227;47.810;8.810;2023-04-25T17:22:11;11.20;99.90
4429;DHT22;2227;47.810;8.810;2023-04-25T17:24:38;11.00;99.90
4429;DHT22;2227;47.810;8.810;2023-04-25T17:27:06;10.80;99.90
4429;DHT22;2227;47.810;8.810;2023-04-25T17:29:33;10.70;99.90
4429;DHT22;2227;47.810;8.810;2023-04-25T17:32:00;10.60;99.90
4429;DHT22;2227;47.810;8.810;2023-04-25T17:34:27;10.80;99.90
4429;DHT22;2227;47.810;8.810;2023-04-25T17:36:54;11.00;99.90
4429;DHT22;2227;47.810;8.810;2023-04-25T17:39:21;11.00;99.90
4429;DHT22;2227;47.810;8.810;2023-04-25T17:41:48;11.10;99.90
4429;DHT22;2227;47.810;8.810;2023-04-25T17:44:14;11.00;99.90
4429;DHT22;2227;47.810;8.810;2023-04-25T17:46:41;11.00;99.90
4429;DHT22;2227;47.810;8.810;2023-04-25T17:49:08;10.90;99.90
4429;DHT22;2227;47.810;8.810;2023-04-25T17:51:34;10.90;99.90
4429;DHT22;2227;47.810;8.810;2023-04-25T17:54:01;11.00;99.90
4429;DHT22;2227;47.810;8.810;2023-04-25T17:56:28;10.90;99.90
4429;DHT22;2227;47.810;8.810;2023-04-25T17:58:56;10.70;99.90
4429;DHT22;2227;47.810;8.810;2023-04-25T18:01:22;10.40;99.90
4429;DHT22;2227;47.810;8.810;2023-04-25T18:03:50;10.40;99.90
4429;DHT22;2227;47.810;8.810;2023-04-25T18:06:17;10.40;99.90
4429;DHT22;2227;47.810;8.810;2023-04-25T18:08:45;10.10;99.90
4429;DHT22;2227;47.810;8.810;2023-04-25T18:11:12;9.80;99.90
4429;DHT22;2227;47.810;8.810;2023-04-25T18:13:38;9.90;99.90
4429;DHT22;2227;47.810;8.810;2023-04-25T18:16:06;9.70;99.90
4429;DHT22;2227;47.810;8.810;2023-04-25T18:18:33;9.60;99.90
4429;DHT22;2227;47.810;8.810;2023-04-25T18:21:01;9.30;99.90
4429;DHT22;2227;47.810;8.810;2023-04-25T18:23:31;9.40;99.90
4429;DHT22;2227;47.810;8.810;2023-04-25T18:25:59;9.20;99.90
4429;DHT22;2227;47.810;8.810;2023-04-25T18:28:26;9.20;99.90
4429;DHT22;2227;47.810;8.810;2023-04-25T18:30:53;9.10;99.90
4429;DHT22;2227;47.810;8.810;2023-04-25T18:33:20;9.10;99.90
4429;DHT22;2227;47.810;8.810;2023-04-25T18:35:48;9.20;99.90
4429;DHT22;2227;47.810;8.810;2023-04-25T18:38:25;9.10;99.90
4429;DHT22;2227;47.810;8.810;2023-04-25T18:40:55;9.20;99.90
4429;DHT22;2227;47.810;8.810;2023-04-25T18:43:35;9.20;99.90
4429;DHT22;2227;47.810;8.810;2023-04-25T18:46:02;9.10;99.90
4429;DHT22;2227;47.810;8.810;2023-04-25T18:48:29;9.10;99.90
4429;DHT22;2227;47.810;8.810;2023-04-25T18:50:56;9.30;99.90
4429;DHT22;2227;47.810;8.810;2023-04-25T18:53:23;9.40;99.90
4429;DHT22;2227;47.810;8.810;2023-04-25T18:55:49;9.30;99.90
4429;DHT22;2227;47.810;8.810;2023-04-25T18:58:16;9.40;99.90
4429;DHT22;2227;47.810;8.810;2023-04-25T19:00:43;9.30;99.90
4429;DHT22;2227;47.810;8.810;2023-04-25T19:03:10;9.20;99.90
4429;DHT22;2227;47.810;8.810;2023-04-25T19:05:37;9.10;99.90
4429;DHT22;2227;47.810;8.810;2023-04-25T19:08:03;9.10;99.90
4429;DHT22;2227;47.810;8.810;2023-04-25T19:10:30;9.20;99.90
4429;DHT22;2227;47.810;8.810;2023-04-25T19:12:57;9.30;99.90
4429;DHT22;2227;47.810;8.810;2023-04-25T19:15:23;9.20;99.90
4429;DHT22;2227;47.810;8.810;2023-04-25T19:17:50;9.10;99.90
4429;DHT22;2227;47.810;8.810;2023-04-25T19:20:17;9.20;99.90
4429;DHT22;2227;47.810;8.810;2023-04-25T19:22:46;9.00;99.90
4429;DHT22;2227;47.810;8.810;2023-04-25T19:25:13;9.20;99.90
4429;DHT22;2227;47.810;8.810;2023-04-25T19:27:41;9.40;99.90
4429;DHT22;2227;47.810;8.810;2023-04-25T19:30:08;9.30;99.90
4429;DHT22;2227;47.810;8.810;2023-04-25T19:32:37;9.30;99.90
4429;DHT22;2227;47.810;8.810;2023-04-25T19:35:05;9.50;99.90
4429;DHT22;2227;47.810;8.810;2023-04-25T19:37:35;9.60;99.90
4429;DHT22;2227;47.810;8.810;2023-04-25T19:40:01;9.50;99.90
4429;DHT22;2227;47.810;8.810;2023-04-25T19:42:30;9.80;99.90
4429;DHT22;2227;47.810;8.810;2023-04-25T19:44:56;10.00;99.90
4429;DHT22;2227;47.810;8.810;2023-04-25T19:47:23;10.00;99.90
4429;DHT22;2227;47.810;8.810;2023-04-25T19:49:50;10.10;99.90
4429;DHT22;2227;47.810;8.810;2023-04-25T19:52:17;9.90;99.90
4429;DHT22;2227;47.810;8.810;2023-04-25T19:54:44;9.70;99.90
4429;DHT22;2227;47.810;8.810;2023-04-25T19:57:12;9.80;99.90
4429;DHT22;2227;47.810;8.810;2023-04-25T19:59:39;9.90;99.90
4429;DHT22;2227;47.810;8.810;2023-04-25T20:02:06;9.80;99.90
4429;DHT22;2227;47.810;8.810;2023-04-25T20:04:36;9.80;99.90